sensor_id;sensor_type;location;lat;lon;timestamp;temperature;humidity
17033;DHT22;63208;52.178;21.016;2022-10-16T00:01:05;14.80;99.90
17033;DHT22;63208;52.178;21.016;2022-10-16T00:03:34;14.70;99.90
17033;DHT22;63208;52.178;21.016;2022-10-16T00:06:02;14.70;99.90
17033;DHT22;63208;52.178;21.016;2022-10-16T00:08:29;14.80;99.90
17033;DHT22;63208;52.178;21.016;2022-10-16T00:11:00;14.80;99.90
17033;DHT22;63208;52.178;21.016;2022-10-16T00:13:28;14.80;99.90
17033;DHT22;63208;52.178;21.016;2022-10-16T00:15:57;14.70;99.90
17033;DHT22;63208;52.178;21.016;2022-10-16T00:18:24;14.80;99.90
17033;DHT22;63208;52.178;21.016;2022-10-16T00:20:53;14.70;99.90
17033;DHT22;63208;52.178;21.016;2022-10-16T00:23:21;14.70;99.90
17033;DHT22;63208;52.178;21.016;2022-10-16T00:25:55;14.70;99.90
17033;DHT22;63208;52.178;21.016;2022-10-16T00:28:22;14.70;99.90
17033;DHT22;63208;52.178;21.016;2022-10-16T00:30:49;14.70;99.90
17033;DHT22;63208;52.178;21.016;2022-10-16T00:33:16;14.70;99.90
17033;DHT22;63208;52.178;21.016;2022-10-16T00:35:43;14.70;99.90
17033;DHT22;63208;52.178;21.016;2022-10-16T00:38:12;14.70;99.90
17033;DHT22;63208;52.178;21.016;2022-10-16T00:40:39;14.70;99.90
17033;DHT22;63208;52.178;21.016;2022-10-16T00:43:13;14.60;99.90
17033;DHT22;63208;52.178;21.016;2022-10-16T00:45:41;14.60;99.90
17033;DHT22;63208;52.178;21.016;2022-10-16T00:48:11;14.60;99.90
17033;DHT22;63208;52.178;21.016;2022-10-16T00:50:40;14.60;99.90
17033;DHT22;63208;52.178;21.016;2022-10-16T00:53:11;14.60;99.90
17033;DHT22;63208;52.178;21.016;2022-10-16T00:55:39;14.60;99.90
17033;DHT22;63208;52.178;21.016;2022-10-16T00:58:06;14.60;99.90
17033;DHT22;63208;52.178;21.016;2022-10-16T01:00:33;14.60;99.90
17033;DHT22;63208;52.178;21.016;2022-10-16T01:03:01;14.60;99.90
17033;DHT22;63208;52.178;21.016;2022-10-16T01:05:33;14.60;99.90
17033;DHT22;63208;52.178;21.016;2022-10-16T01:08:09;14.60;99.90
17033;DHT22;63208;52.178;21.016;2022-10-16T01:10:44;14.70;99.90
17033;DHT22;63208;52.178;21.016;2022-10-16T01:13:18;14.60;99.90
17033;DHT22;63208;52.178;21.016;2022-10-16T01:15:51;14.70;99.90
17033;DHT22;63208;52.178;21.016;2022-10-16T01:18:25;14.70;99.90
17033;DHT22;63208;52.178;21.016;2022-10-16T01:20:58;14.70;99.90
17033;DHT22;63208;52.178;21.016;2022-10-16T01:23:35;14.70;99.90
17033;DHT22;63208;52.178;21.016;2022-10-16T01:26:31;14.70;99.90
17033;DHT22;63208;52.178;21.016;2022-10-16T01:29:05;14.70;99.90
17033;DHT22;63208;52.178;21.016;2022-10-16T01:31:38;14.70;99.90
17033;DHT22;63208;52.178;21.016;2022-10-16T01:34:10;14.70;99.90
17033;DHT22;63208;52.178;21.016;2022-10-16T01:36:44;14.70;99.90
17033;DHT22;63208;52.178;21.016;2022-10-16T01:39:13;14.70;99.90
17033;DHT22;63208;52.178;21.016;2022-10-16T01:41:44;14.70;99.90
17033;DHT22;63208;52.178;21.016;2022-10-16T01:44:17;14.70;99.90
17033;DHT22;63208;52.178;21.016;2022-10-16T01:46:47;14.70;99.90
17033;DHT22;63208;52.178;21.016;2022-10-16T01:49:16;14.70;99.90
17033;DHT22;63208;52.178;21.016;2022-10-16T01:51:46;14.70;99.90
17033;DHT22;63208;52.178;21.016;2022-10-16T01:54:16;14.70;99.90
17033;DHT22;63208;52.178;21.016;2022-10-16T01:56:46;14.70;99.90
17033;DHT22;63208;52.178;21.016;2022-10-16T01:59:18;14.70;99.90
17033;DHT22;63208;52.178;21.016;2022-10-16T02:01:50;14.60;99.90
17033;DHT22;63208;52.178;21.016;2022-10-16T02:04:22;14.60;99.90
17033;DHT22;63208;52.178;21.016;2022-10-16T02:06:52;14.50;99.90
17033;DHT22;63208;52.178;21.016;2022-10-16T02:09:19;14.50;99.90
17033;DHT22;63208;52.178;21.016;2022-10-16T02:11:46;14.60;99.90
17033;DHT22;63208;52.178;21.016;2022-10-16T02:14:16;14.50;99.90
17033;DHT22;63208;52.178;21.016;2022-10-16T02:16:45;14.50;99.90
17033;DHT22;63208;52.178;21.016;2022-10-16T02:19:13;14.50;99.90
17033;DHT22;63208;52.178;21.016;2022-10-16T02:21:44;14.50;99.90
17033;DHT22;63208;52.178;21.016;2022-10-16T02:24:18;14.40;99.90
17033;DHT22;63208;52.178;21.016;2022-10-16T02:26:49;14.40;99.90
17033;DHT22;63208;52.178;21.016;2022-10-16T02:29:22;14.30;99.90
17033;DHT22;63208;52.178;21.016;2022-10-16T02:31:53;14.30;99.90
17033;DHT22;63208;52.178;21.016;2022-10-16T02:34:23;14.20;99.90
17033;DHT22;63208;52.178;21.016;2022-10-16T02:36:52;14.20;99.90
17033;DHT22;63208;52.178;21.016;2022-10-16T02:39:20;14.20;99.90
17033;DHT22;63208;52.178;21.016;2022-10-16T02:41:47;14.30;99.90
17033;DHT22;63208;52.178;21.016;2022-10-16T02:44:14;14.30;99.90
17033;DHT22;63208;52.178;21.016;2022-10-16T02:46:43;14.30;99.90
17033;DHT22;63208;52.178;21.016;2022-10-16T02:49:10;14.30;99.90
17033;DHT22;63208;52.178;21.016;2022-10-16T02:51:37;14.30;99.90
17033;DHT22;63208;52.178;21.016;2022-10-16T02:54:04;14.30;99.90
17033;DHT22;63208;52.178;21.016;2022-10-16T02:56:31;14.30;99.90
17033;DHT22;63208;52.178;21.016;2022-10-16T02:58:58;14.30;99.90
17033;DHT22;63208;52.178;21.016;2022-10-16T03:01:25;14.30;99.90
17033;DHT22;63208;52.178;21.016;2022-10-16T03:03:54;14.30;99.90
17033;DHT22;63208;52.178;21.016;2022-10-16T03:06:21;14.30;99.90
17033;DHT22;63208;52.178;21.016;2022-10-16T03:08:49;14.30;99.90
17033;DHT22;63208;52.178;21.016;2022-10-16T03:11:16;14.30;99.90
17033;DHT22;63208;52.178;21.016;2022-10-16T03:13:43;14.30;99.90
17033;DHT22;63208;52.178;21.016;2022-10-16T03:16:10;14.30;99.90
17033;DHT22;63208;52.178;21.016;2022-10-16T03:18:37;14.30;99.90
17033;DHT22;63208;52.178;21.016;2022-10-16T03:21:05;14.30;99.90
17033;DHT22;63208;52.178;21.016;2022-10-16T03:23:32;14.40;99.90
17033;DHT22;63208;52.178;21.016;2022-10-16T03:25:59;14.40;99.90
17033;DHT22;63208;52.178;21.016;2022-10-16T03:28:26;14.30;99.90
17033;DHT22;63208;52.178;21.016;2022-10-16T03:30:53;14.30;99.90
17033;DHT22;63208;52.178;21.016;2022-10-16T03:33:20;14.30;99.90
17033;DHT22;63208;52.178;21.016;2022-10-16T03:35:51;14.30;99.90
17033;DHT22;63208;52.178;21.016;2022-10-16T03:38:20;14.30;99.90
17033;DHT22;63208;52.178;21.016;2022-10-16T03:40:47;14.30;99.90
17033;DHT22;63208;52.178;21.016;2022-10-16T03:43:15;14.30;99.90
17033;DHT22;63208;52.178;21.016;2022-10-16T03:45:42;14.30;99.90
17033;DHT22;63208;52.178;21.016;2022-10-16T03:48:09;14.30;99.90
17033;DHT22;63208;52.178;21.016;2022-10-16T03:50:36;14.30;99.90
17033;DHT22;63208;52.178;21.016;2022-10-16T03:53:03;14.30;99.90
17033;DHT22;63208;52.178;21.016;2022-10-16T03:55:31;14.30;99.90
17033;DHT22;63208;52.178;21.016;2022-10-16T03:57:58;14.30;99.90
17033;DHT22;63208;52.178;21.016;2022-10-16T04:00:25;14.30;99.90
17033;DHT22;63208;52.178;21.016;2022-10-16T04:02:52;14.20;99.90
17033;DHT22;63208;52.178;21.016;2022-10-16T04:05:19;14.30;99.90
17033;DHT22;63208;52.178;21.016;2022-10-16T04:07:46;14.30;99.90
17033;DHT22;63208;52.178;21.016;2022-10-16T04:10:13;14.20;99.90
17033;DHT22;63208;52.178;21.016;2022-10-16T04:12:44;14.10;99.90
17033;DHT22;63208;52.178;21.016;2022-10-16T04:15:11;14.10;99.90
17033;DHT22;63208;52.178;21.016;2022-10-16T04:17:38;14.00;99.90
17033;DHT22;63208;52.178;21.016;2022-10-16T04:20:06;14.10;99.90
17033;DHT22;63208;52.178;21.016;2022-10-16T04:22:33;14.10;99.90
17033;DHT22;63208;52.178;21.016;2022-10-16T04:25:00;14.00;99.90
17033;DHT22;63208;52.178;21.016;2022-10-16T04:27:27;13.90;99.90
17033;DHT22;63208;52.178;21.016;2022-10-16T04:29:58;13.80;99.90
17033;DHT22;63208;52.178;21.016;2022-10-16T04:32:25;13.80;99.90
17033;DHT22;63208;52.178;21.016;2022-10-16T04:34:52;13.80;99.90
17033;DHT22;63208;52.178;21.016;2022-10-16T04:37:23;13.90;99.90
17033;DHT22;63208;52.178;21.016;2022-10-16T04:39:50;13.90;99.90
17033;DHT22;63208;52.178;21.016;2022-10-16T04:42:17;14.00;99.90
17033;DHT22;63208;52.178;21.016;2022-10-16T04:44:44;14.00;99.90
17033;DHT22;63208;52.178;21.016;2022-10-16T04:47:12;14.00;99.90
17033;DHT22;63208;52.178;21.016;2022-10-16T04:49:40;14.00;99.90
17033;DHT22;63208;52.178;21.016;2022-10-16T04:52:07;13.90;99.90
17033;DHT22;63208;52.178;21.016;2022-10-16T04:54:34;14.00;99.90
17033;DHT22;63208;52.178;21.016;2022-10-16T04:57:01;14.00;99.90
17033;DHT22;63208;52.178;21.016;2022-10-16T04:59:30;14.00;99.90
17033;DHT22;63208;52.178;21.016;2022-10-16T05:01:57;14.00;99.90
17033;DHT22;63208;52.178;21.016;2022-10-16T05:04:25;14.00;99.90
17033;DHT22;63208;52.178;21.016;2022-10-16T05:06:52;14.00;99.90
17033;DHT22;63208;52.178;21.016;2022-10-16T05:09:19;14.00;99.90
17033;DHT22;63208;52.178;21.016;2022-10-16T05:11:46;13.90;99.90
17033;DHT22;63208;52.178;21.016;2022-10-16T05:14:13;13.90;99.90
17033;DHT22;63208;52.178;21.016;2022-10-16T05:16:40;13.90;99.90
17033;DHT22;63208;52.178;21.016;2022-10-16T05:19:07;13.90;99.90
17033;DHT22;63208;52.178;21.016;2022-10-16T05:21:36;13.80;99.90
17033;DHT22;63208;52.178;21.016;2022-10-16T05:24:03;13.90;99.90
17033;DHT22;63208;52.178;21.016;2022-10-16T05:26:30;13.80;99.90
17033;DHT22;63208;52.178;21.016;2022-10-16T05:28:57;13.80;99.90
17033;DHT22;63208;52.178;21.016;2022-10-16T05:31:24;13.80;99.90
17033;DHT22;63208;52.178;21.016;2022-10-16T05:33:51;13.80;99.90
17033;DHT22;63208;52.178;21.016;2022-10-16T05:36:18;13.80;99.90
17033;DHT22;63208;52.178;21.016;2022-10-16T05:38:50;13.70;99.90
17033;DHT22;63208;52.178;21.016;2022-10-16T05:41:17;13.60;99.90
17033;DHT22;63208;52.178;21.016;2022-10-16T05:43:47;13.60;99.90
17033;DHT22;63208;52.178;21.016;2022-10-16T05:46:14;13.60;99.90
17033;DHT22;63208;52.178;21.016;2022-10-16T05:48:41;13.50;99.90
17033;DHT22;63208;52.178;21.016;2022-10-16T05:51:10;13.50;99.90
17033;DHT22;63208;52.178;21.016;2022-10-16T05:53:39;13.60;99.90
17033;DHT22;63208;52.178;21.016;2022-10-16T05:56:10;13.60;99.90
17033;DHT22;63208;52.178;21.016;2022-10-16T05:58:38;13.50;99.90
17033;DHT22;63208;52.178;21.016;2022-10-16T06:01:08;13.50;99.90
17033;DHT22;63208;52.178;21.016;2022-10-16T06:03:36;13.60;99.90
17033;DHT22;63208;52.178;21.016;2022-10-16T06:06:08;13.60;99.90
17033;DHT22;63208;52.178;21.016;2022-10-16T06:08:35;13.50;99.90
17033;DHT22;63208;52.178;21.016;2022-10-16T06:11:03;13.50;99.90
17033;DHT22;63208;52.178;21.016;2022-10-16T06:13:32;13.50;99.90
17033;DHT22;63208;52.178;21.016;2022-10-16T06:15:59;13.60;99.90
17033;DHT22;63208;52.178;21.016;2022-10-16T06:18:27;13.60;99.90
17033;DHT22;63208;52.178;21.016;2022-10-16T06:20:55;13.60;99.90
17033;DHT22;63208;52.178;21.016;2022-10-16T06:23:22;13.60;99.90
17033;DHT22;63208;52.178;21.016;2022-10-16T06:25:49;13.70;99.90
17033;DHT22;63208;52.178;21.016;2022-10-16T06:28:16;13.70;99.90
17033;DHT22;63208;52.178;21.016;2022-10-16T06:30:44;13.70;99.90
17033;DHT22;63208;52.178;21.016;2022-10-16T06:33:12;13.80;99.90
17033;DHT22;63208;52.178;21.016;2022-10-16T06:35:39;13.80;99.90
17033;DHT22;63208;52.178;21.016;2022-10-16T06:38:06;13.80;99.90
17033;DHT22;63208;52.178;21.016;2022-10-16T06:40:33;13.90;99.90
17033;DHT22;63208;52.178;21.016;2022-10-16T06:43:00;13.90;99.90
17033;DHT22;63208;52.178;21.016;2022-10-16T06:45:27;13.90;99.90
17033;DHT22;63208;52.178;21.016;2022-10-16T06:47:56;14.00;99.90
17033;DHT22;63208;52.178;21.016;2022-10-16T06:50:23;14.00;99.90
17033;DHT22;63208;52.178;21.016;2022-10-16T06:52:50;14.00;99.90
17033;DHT22;63208;52.178;21.016;2022-10-16T06:55:17;14.10;99.90
17033;DHT22;63208;52.178;21.016;2022-10-16T06:57:46;14.10;99.90
17033;DHT22;63208;52.178;21.016;2022-10-16T07:00:13;14.20;99.90
17033;DHT22;63208;52.178;21.016;2022-10-16T07:02:40;14.20;99.90
17033;DHT22;63208;52.178;21.016;2022-10-16T07:05:09;14.20;99.90
17033;DHT22;63208;52.178;21.016;2022-10-16T07:07:36;14.30;99.90
17033;DHT22;63208;52.178;21.016;2022-10-16T07:10:03;14.30;99.90
17033;DHT22;63208;52.178;21.016;2022-10-16T07:12:30;14.40;99.90
17033;DHT22;63208;52.178;21.016;2022-10-16T07:14:57;14.40;99.90
17033;DHT22;63208;52.178;21.016;2022-10-16T07:17:25;14.50;99.90
17033;DHT22;63208;52.178;21.016;2022-10-16T07:19:51;14.50;99.90
17033;DHT22;63208;52.178;21.016;2022-10-16T07:22:20;14.50;99.90
17033;DHT22;63208;52.178;21.016;2022-10-16T07:24:47;14.50;99.90
17033;DHT22;63208;52.178;21.016;2022-10-16T07:27:14;14.50;99.90
17033;DHT22;63208;52.178;21.016;2022-10-16T07:29:42;14.50;99.90
17033;DHT22;63208;52.178;21.016;2022-10-16T07:32:09;14.50;99.90
17033;DHT22;63208;52.178;21.016;2022-10-16T07:34:36;14.60;99.90
17033;DHT22;63208;52.178;21.016;2022-10-16T07:37:03;14.70;99.90
17033;DHT22;63208;52.178;21.016;2022-10-16T07:39:31;14.70;99.90
17033;DHT22;63208;52.178;21.016;2022-10-16T07:41:58;14.80;99.90
17033;DHT22;63208;52.178;21.016;2022-10-16T07:44:25;14.80;99.90
17033;DHT22;63208;52.178;21.016;2022-10-16T07:46:52;14.90;99.90
17033;DHT22;63208;52.178;21.016;2022-10-16T07:49:19;14.90;99.90
17033;DHT22;63208;52.178;21.016;2022-10-16T07:51:46;15.00;99.90
17033;DHT22;63208;52.178;21.016;2022-10-16T07:54:13;15.10;99.90
17033;DHT22;63208;52.178;21.016;2022-10-16T07:56:41;15.20;99.90
17033;DHT22;63208;52.178;21.016;2022-10-16T07:59:08;15.30;99.90
17033;DHT22;63208;52.178;21.016;2022-10-16T08:01:35;15.40;99.90
17033;DHT22;63208;52.178;21.016;2022-10-16T08:04:02;15.60;99.90
17033;DHT22;63208;52.178;21.016;2022-10-16T08:06:29;15.60;99.90
17033;DHT22;63208;52.178;21.016;2022-10-16T08:09:01;15.80;99.90
17033;DHT22;63208;52.178;21.016;2022-10-16T08:11:29;15.90;99.90
17033;DHT22;63208;52.178;21.016;2022-10-16T08:13:57;16.00;99.90
17033;DHT22;63208;52.178;21.016;2022-10-16T08:16:24;16.00;99.90
17033;DHT22;63208;52.178;21.016;2022-10-16T08:18:51;16.00;99.90
17033;DHT22;63208;52.178;21.016;2022-10-16T08:21:21;16.20;99.90
17033;DHT22;63208;52.178;21.016;2022-10-16T08:23:49;16.20;99.90
17033;DHT22;63208;52.178;21.016;2022-10-16T08:26:16;16.40;99.90
17033;DHT22;63208;52.178;21.016;2022-10-16T08:28:43;16.30;99.90
17033;DHT22;63208;52.178;21.016;2022-10-16T08:31:13;16.60;99.90
17033;DHT22;63208;52.178;21.016;2022-10-16T08:33:42;16.50;99.90
17033;DHT22;63208;52.178;21.016;2022-10-16T08:36:11;16.60;99.90
17033;DHT22;63208;52.178;21.016;2022-10-16T08:38:39;16.60;99.90
17033;DHT22;63208;52.178;21.016;2022-10-16T08:41:28;16.60;99.90
17033;DHT22;63208;52.178;21.016;2022-10-16T08:44:29;16.70;99.90
17033;DHT22;63208;52.178;21.016;2022-10-16T08:47:05;16.60;99.90
17033;DHT22;63208;52.178;21.016;2022-10-16T08:49:38;16.60;99.90
17033;DHT22;63208;52.178;21.016;2022-10-16T08:52:11;16.60;99.90
17033;DHT22;63208;52.178;21.016;2022-10-16T08:54:42;16.60;99.90
17033;DHT22;63208;52.178;21.016;2022-10-16T08:57:13;16.60;99.90
17033;DHT22;63208;52.178;21.016;2022-10-16T08:59:40;16.70;99.90
17033;DHT22;63208;52.178;21.016;2022-10-16T09:02:24;16.70;99.90
17033;DHT22;63208;52.178;21.016;2022-10-16T09:05:17;16.80;99.90
17033;DHT22;63208;52.178;21.016;2022-10-16T09:07:50;16.80;99.90
17033;DHT22;63208;52.178;21.016;2022-10-16T09:10:31;16.90;99.90
17033;DHT22;63208;52.178;21.016;2022-10-16T09:13:10;17.00;99.90
17033;DHT22;63208;52.178;21.016;2022-10-16T09:15:46;17.00;99.90
17033;DHT22;63208;52.178;21.016;2022-10-16T09:18:22;17.10;99.90
17033;DHT22;63208;52.178;21.016;2022-10-16T09:20:54;17.20;99.90
17033;DHT22;63208;52.178;21.016;2022-10-16T09:23:26;17.40;99.90
17033;DHT22;63208;52.178;21.016;2022-10-16T09:25:55;17.40;99.90
17033;DHT22;63208;52.178;21.016;2022-10-16T09:28:22;17.50;99.90
17033;DHT22;63208;52.178;21.016;2022-10-16T09:30:50;17.50;99.90
17033;DHT22;63208;52.178;21.016;2022-10-16T09:33:20;17.50;99.90
17033;DHT22;63208;52.178;21.016;2022-10-16T09:35:49;17.60;99.90
17033;DHT22;63208;52.178;21.016;2022-10-16T09:38:26;17.70;99.90
17033;DHT22;63208;52.178;21.016;2022-10-16T09:40:54;17.80;99.90
17033;DHT22;63208;52.178;21.016;2022-10-16T09:43:24;17.80;99.90
17033;DHT22;63208;52.178;21.016;2022-10-16T09:45:54;17.90;99.90
17033;DHT22;63208;52.178;21.016;2022-10-16T09:48:26;18.00;99.90
17033;DHT22;63208;52.178;21.016;2022-10-16T09:50:57;18.00;99.90
17033;DHT22;63208;52.178;21.016;2022-10-16T09:53:26;17.90;99.90
17033;DHT22;63208;52.178;21.016;2022-10-16T09:56:04;17.90;99.90
17033;DHT22;63208;52.178;21.016;2022-10-16T09:58:32;18.00;99.90
17033;DHT22;63208;52.178;21.016;2022-10-16T10:01:00;18.00;99.90
17033;DHT22;63208;52.178;21.016;2022-10-16T10:03:35;18.10;99.90
17033;DHT22;63208;52.178;21.016;2022-10-16T10:06:14;18.10;99.90
17033;DHT22;63208;52.178;21.016;2022-10-16T10:09:03;18.20;99.90
17033;DHT22;63208;52.178;21.016;2022-10-16T10:11:41;18.40;99.90
17033;DHT22;63208;52.178;21.016;2022-10-16T10:14:20;18.50;99.90
17033;DHT22;63208;52.178;21.016;2022-10-16T10:16:48;18.50;99.90
17033;DHT22;63208;52.178;21.016;2022-10-16T10:19:17;18.60;99.90
17033;DHT22;63208;52.178;21.016;2022-10-16T10:21:45;18.70;99.90
17033;DHT22;63208;52.178;21.016;2022-10-16T10:24:13;18.80;99.90
17033;DHT22;63208;52.178;21.016;2022-10-16T10:26:48;18.80;99.90
17033;DHT22;63208;52.178;21.016;2022-10-16T10:29:27;18.80;99.90
17033;DHT22;63208;52.178;21.016;2022-10-16T10:32:03;18.90;99.90
17033;DHT22;63208;52.178;21.016;2022-10-16T10:34:54;18.90;99.90
17033;DHT22;63208;52.178;21.016;2022-10-16T10:37:58;18.90;99.90
17033;DHT22;63208;52.178;21.016;2022-10-16T10:40:39;19.00;99.90
17033;DHT22;63208;52.178;21.016;2022-10-16T10:43:17;19.10;99.90
17033;DHT22;63208;52.178;21.016;2022-10-16T10:45:48;19.00;99.90
17033;DHT22;63208;52.178;21.016;2022-10-16T10:48:32;18.90;99.90
17033;DHT22;63208;52.178;21.016;2022-10-16T10:51:13;18.90;99.90
17033;DHT22;63208;52.178;21.016;2022-10-16T10:53:48;18.90;99.90
17033;DHT22;63208;52.178;21.016;2022-10-16T10:56:23;18.90;99.90
17033;DHT22;63208;52.178;21.016;2022-10-16T11:01:44;18.90;99.90
17033;DHT22;63208;52.178;21.016;2022-10-16T11:04:28;19.00;99.90
17033;DHT22;63208;52.178;21.016;2022-10-16T11:07:04;19.00;99.90
17033;DHT22;63208;52.178;21.016;2022-10-16T11:09:34;19.10;99.90
17033;DHT22;63208;52.178;21.016;2022-10-16T11:12:07;19.10;99.90
17033;DHT22;63208;52.178;21.016;2022-10-16T11:14:42;19.20;99.90
17033;DHT22;63208;52.178;21.016;2022-10-16T11:17:16;19.20;99.90
17033;DHT22;63208;52.178;21.016;2022-10-16T11:19:48;19.10;99.90
17033;DHT22;63208;52.178;21.016;2022-10-16T11:22:22;19.20;99.90
17033;DHT22;63208;52.178;21.016;2022-10-16T11:24:55;19.20;99.90
17033;DHT22;63208;52.178;21.016;2022-10-16T11:27:31;19.20;99.90
17033;DHT22;63208;52.178;21.016;2022-10-16T11:30:05;19.10;99.90
17033;DHT22;63208;52.178;21.016;2022-10-16T11:32:42;19.10;99.90
17033;DHT22;63208;52.178;21.016;2022-10-16T11:35:17;19.10;99.90
17033;DHT22;63208;52.178;21.016;2022-10-16T11:37:50;19.10;99.90
17033;DHT22;63208;52.178;21.016;2022-10-16T11:40:23;19.20;99.90
17033;DHT22;63208;52.178;21.016;2022-10-16T11:42:54;19.20;99.90
17033;DHT22;63208;52.178;21.016;2022-10-16T11:45:29;19.30;99.90
17033;DHT22;63208;52.178;21.016;2022-10-16T11:48:03;19.50;99.90
17033;DHT22;63208;52.178;21.016;2022-10-16T11:50:34;19.50;99.90
17033;DHT22;63208;52.178;21.016;2022-10-16T11:53:13;19.50;99.90
17033;DHT22;63208;52.178;21.016;2022-10-16T11:55:41;19.60;99.90
17033;DHT22;63208;52.178;21.016;2022-10-16T11:58:16;19.50;99.90
17033;DHT22;63208;52.178;21.016;2022-10-16T12:00:53;19.60;99.90
17033;DHT22;63208;52.178;21.016;2022-10-16T12:03:28;19.50;99.90
17033;DHT22;63208;52.178;21.016;2022-10-16T12:06:12;19.60;99.90
17033;DHT22;63208;52.178;21.016;2022-10-16T12:08:43;19.60;99.90
17033;DHT22;63208;52.178;21.016;2022-10-16T12:11:23;19.50;99.90
17033;DHT22;63208;52.178;21.016;2022-10-16T12:13:50;19.50;99.90
17033;DHT22;63208;52.178;21.016;2022-10-16T12:16:23;19.50;99.90
17033;DHT22;63208;52.178;21.016;2022-10-16T12:19:07;19.50;99.90
17033;DHT22;63208;52.178;21.016;2022-10-16T12:21:36;19.60;99.90
17033;DHT22;63208;52.178;21.016;2022-10-16T12:24:05;19.60;99.90
17033;DHT22;63208;52.178;21.016;2022-10-16T12:26:34;19.60;99.90
17033;DHT22;63208;52.178;21.016;2022-10-16T12:29:14;19.50;99.90
17033;DHT22;63208;52.178;21.016;2022-10-16T12:31:46;19.40;99.90
17033;DHT22;63208;52.178;21.016;2022-10-16T12:34:22;19.40;99.90
17033;DHT22;63208;52.178;21.016;2022-10-16T12:36:50;19.40;99.90
17033;DHT22;63208;52.178;21.016;2022-10-16T12:39:22;19.40;99.90
17033;DHT22;63208;52.178;21.016;2022-10-16T12:42:01;19.50;99.90
17033;DHT22;63208;52.178;21.016;2022-10-16T12:44:32;19.50;99.90
17033;DHT22;63208;52.178;21.016;2022-10-16T12:47:00;19.50;99.90
17033;DHT22;63208;52.178;21.016;2022-10-16T12:49:34;19.50;99.90
17033;DHT22;63208;52.178;21.016;2022-10-16T12:52:03;19.40;99.90
17033;DHT22;63208;52.178;21.016;2022-10-16T12:54:36;19.40;99.90
17033;DHT22;63208;52.178;21.016;2022-10-16T12:57:27;19.40;99.90
17033;DHT22;63208;52.178;21.016;2022-10-16T13:00:03;19.40;99.90
17033;DHT22;63208;52.178;21.016;2022-10-16T13:02:54;19.50;99.90
17033;DHT22;63208;52.178;21.016;2022-10-16T13:05:32;19.50;99.90
17033;DHT22;63208;52.178;21.016;2022-10-16T13:08:16;19.50;99.90
17033;DHT22;63208;52.178;21.016;2022-10-16T13:10:57;19.50;99.90
17033;DHT22;63208;52.178;21.016;2022-10-16T13:13:49;19.40;99.90
17033;DHT22;63208;52.178;21.016;2022-10-16T13:16:24;19.50;99.90
17033;DHT22;63208;52.178;21.016;2022-10-16T13:19:03;19.50;99.90
17033;DHT22;63208;52.178;21.016;2022-10-16T13:21:45;19.50;99.90
17033;DHT22;63208;52.178;21.016;2022-10-16T13:24:25;19.40;99.90
17033;DHT22;63208;52.178;21.016;2022-10-16T13:27:05;19.40;99.90
17033;DHT22;63208;52.178;21.016;2022-10-16T13:29:34;19.40;99.90
17033;DHT22;63208;52.178;21.016;2022-10-16T13:32:07;19.30;99.90
17033;DHT22;63208;52.178;21.016;2022-10-16T13:34:43;19.30;99.90
17033;DHT22;63208;52.178;21.016;2022-10-16T13:37:17;19.30;99.90
17033;DHT22;63208;52.178;21.016;2022-10-16T13:39:45;19.30;99.90
17033;DHT22;63208;52.178;21.016;2022-10-16T13:42:16;19.30;99.90
17033;DHT22;63208;52.178;21.016;2022-10-16T13:44:47;19.30;99.90
17033;DHT22;63208;52.178;21.016;2022-10-16T13:47:16;19.30;99.90
17033;DHT22;63208;52.178;21.016;2022-10-16T13:49:44;19.30;99.90
17033;DHT22;63208;52.178;21.016;2022-10-16T13:52:18;19.30;99.90
17033;DHT22;63208;52.178;21.016;2022-10-16T13:54:46;19.30;99.90
17033;DHT22;63208;52.178;21.016;2022-10-16T13:57:15;19.30;99.90
17033;DHT22;63208;52.178;21.016;2022-10-16T13:59:43;19.30;99.90
17033;DHT22;63208;52.178;21.016;2022-10-16T14:02:20;19.30;99.90
17033;DHT22;63208;52.178;21.016;2022-10-16T14:04:49;19.30;99.90
17033;DHT22;63208;52.178;21.016;2022-10-16T14:07:23;19.30;99.90
17033;DHT22;63208;52.178;21.016;2022-10-16T14:09:51;19.30;99.90
17033;DHT22;63208;52.178;21.016;2022-10-16T14:12:21;19.30;99.90
17033;DHT22;63208;52.178;21.016;2022-10-16T14:14:51;19.30;99.90
17033;DHT22;63208;52.178;21.016;2022-10-16T14:17:22;19.30;99.90
17033;DHT22;63208;52.178;21.016;2022-10-16T14:19:51;19.30;99.90
17033;DHT22;63208;52.178;21.016;2022-10-16T14:22:27;19.30;99.90
17033;DHT22;63208;52.178;21.016;2022-10-16T14:24:55;19.30;99.90
17033;DHT22;63208;52.178;21.016;2022-10-16T14:27:29;19.20;99.90
17033;DHT22;63208;52.178;21.016;2022-10-16T14:30:14;19.30;99.90
17033;DHT22;63208;52.178;21.016;2022-10-16T14:32:42;19.30;99.90
17033;DHT22;63208;52.178;21.016;2022-10-16T14:35:23;19.30;99.90
17033;DHT22;63208;52.178;21.016;2022-10-16T14:37:52;19.30;99.90
17033;DHT22;63208;52.178;21.016;2022-10-16T14:40:21;19.20;99.90
17033;DHT22;63208;52.178;21.016;2022-10-16T14:42:50;19.20;99.90
17033;DHT22;63208;52.178;21.016;2022-10-16T14:45:19;19.20;99.90
17033;DHT22;63208;52.178;21.016;2022-10-16T14:47:50;19.30;99.90
17033;DHT22;63208;52.178;21.016;2022-10-16T14:50:17;19.20;99.90
17033;DHT22;63208;52.178;21.016;2022-10-16T14:52:44;19.20;99.90
17033;DHT22;63208;52.178;21.016;2022-10-16T14:55:11;19.20;99.90
17033;DHT22;63208;52.178;21.016;2022-10-16T14:57:39;19.10;99.90
17033;DHT22;63208;52.178;21.016;2022-10-16T15:00:16;19.10;99.90
17033;DHT22;63208;52.178;21.016;2022-10-16T15:02:44;19.10;99.90
17033;DHT22;63208;52.178;21.016;2022-10-16T15:05:15;19.10;99.90
17033;DHT22;63208;52.178;21.016;2022-10-16T15:07:42;19.10;99.90
17033;DHT22;63208;52.178;21.016;2022-10-16T15:10:10;19.10;99.90
17033;DHT22;63208;52.178;21.016;2022-10-16T15:12:37;19.10;99.90
17033;DHT22;63208;52.178;21.016;2022-10-16T15:15:21;19.00;99.90
17033;DHT22;63208;52.178;21.016;2022-10-16T15:17:50;19.00;99.90
17033;DHT22;63208;52.178;21.016;2022-10-16T15:20:21;19.00;99.90
17033;DHT22;63208;52.178;21.016;2022-10-16T15:22:48;19.00;99.90
17033;DHT22;63208;52.178;21.016;2022-10-16T15:25:27;19.00;99.90
17033;DHT22;63208;52.178;21.016;2022-10-16T15:27:55;19.00;99.90
17033;DHT22;63208;52.178;21.016;2022-10-16T15:30:23;18.90;99.90
17033;DHT22;63208;52.178;21.016;2022-10-16T15:32:50;18.90;99.90
17033;DHT22;63208;52.178;21.016;2022-10-16T15:35:18;18.90;99.90
17033;DHT22;63208;52.178;21.016;2022-10-16T15:37:46;18.80;99.90
17033;DHT22;63208;52.178;21.016;2022-10-16T15:40:14;18.80;99.90